createdAt,value
2022-12-23T00:01:27.333Z,28.92
2022-12-23T00:03:58.433Z,27.40
2022-12-23T00:06:25.650Z,26.70
2022-12-23T00:08:58.124Z,25.40
2022-12-23T00:11:25.994Z,22.45
2022-12-23T00:14:18.150Z,24.73
2022-12-23T00:16:47.542Z,23.20
2022-12-23T00:19:14.189Z,24.45
2022-12-23T00:21:40.898Z,24.02
2022-12-23T00:24:07.907Z,27.05
2022-12-23T00:26:34.522Z,32.90
2022-12-23T00:29:01.543Z,27.80
2022-12-23T00:31:28.209Z,28.20
2022-12-23T00:33:54.906Z,27.63
2022-12-23T00:36:27.699Z,35.38
2022-12-23T00:39:14.059Z,29.98
2022-12-23T00:41:59.505Z,24.63
2022-12-23T00:44:26.483Z,33.17
2022-12-23T00:46:53.017Z,31.30
2022-12-23T00:49:39.297Z,28.15
2022-12-23T00:52:07.723Z,25.85
2022-12-23T00:54:34.281Z,24.10
2022-12-23T00:57:01.371Z,20.48
2022-12-23T00:59:27.926Z,28.70
2022-12-23T01:02:13.889Z,23.73
2022-12-23T01:04:59.462Z,28.38
2022-12-23T01:07:26.124Z,25.48
2022-12-23T01:09:52.703Z,21.08
2022-12-23T01:12:19.620Z,27.00
2022-12-23T01:14:46.345Z,25.25
2022-12-23T01:17:13.193Z,20.92
2022-12-23T01:19:39.805Z,30.92
2022-12-23T01:22:06.440Z,29.50
2022-12-23T01:24:33.389Z,55.65
2022-12-23T01:27:00.187Z,45.00
2022-12-23T01:29:26.794Z,23.52
2022-12-23T01:31:53.499Z,127.43
2022-12-23T01:34:20.282Z,26.73
2022-12-23T01:39:17.380Z,95.00
2022-12-23T01:42:02.436Z,31.75
2022-12-23T01:45:04.851Z,56.05
2022-12-23T01:47:55.766Z,37.08
2022-12-23T01:50:35.350Z,37.15
2022-12-23T01:53:11.134Z,23.52
2022-12-23T01:56:03.497Z,19.17
2022-12-23T01:58:52.165Z,92.85
2022-12-23T02:01:37.491Z,35.20
2022-12-23T02:04:07.999Z,29.25
2022-12-23T02:06:56.708Z,57.45
2022-12-23T02:09:24.596Z,53.92
2022-12-23T02:12:06.383Z,23.17
2022-12-23T02:15:10.389Z,34.40
2022-12-23T02:17:55.002Z,33.05
2022-12-23T02:20:50.621Z,59.10
2022-12-23T02:23:47.662Z,27.58
2022-12-23T02:26:20.147Z,83.80
2022-12-23T02:29:05.521Z,48.53
2022-12-23T02:31:49.346Z,54.08
2022-12-23T02:34:27.117Z,46.55
2022-12-23T02:37:08.508Z,76.47
2022-12-23T02:39:50.768Z,42.20
2022-12-23T02:42:30.393Z,41.00
2022-12-23T02:45:03.368Z,25.08
2022-12-23T02:47:37.809Z,53.70
2022-12-23T02:50:11.264Z,37.50
2022-12-23T02:52:41.190Z,33.45
2022-12-23T02:55:16.148Z,45.40
2022-12-23T02:57:47.128Z,47.08
2022-12-23T03:02:41.377Z,60.20
2022-12-23T03:05:39.250Z,52.70
2022-12-23T03:08:12.568Z,68.07
2022-12-23T03:10:51.347Z,67.55
2022-12-23T03:13:44.091Z,83.63
2022-12-23T03:16:28.514Z,75.95
2022-12-23T03:19:15.504Z,228.63
2022-12-23T03:21:45.926Z,69.20
2022-12-23T03:24:31.529Z,81.65
2022-12-23T03:27:09.473Z,107.75
2022-12-23T03:29:55.820Z,92.32
2022-12-23T03:32:24.665Z,84.60
2022-12-23T03:34:55.400Z,95.95
2022-12-23T03:37:25.922Z,221.32
2022-12-23T03:39:58.690Z,149.13
2022-12-23T03:42:41.390Z,100.40
2022-12-23T03:48:37.628Z,89.50
2022-12-23T03:51:11.436Z,71.28
2022-12-23T03:53:45.418Z,88.57
2022-12-23T03:56:27.250Z,71.03
2022-12-23T03:59:02.556Z,81.25
2022-12-23T04:01:40.083Z,71.95
2022-12-23T04:04:24.975Z,78.65
2022-12-23T04:06:57.475Z,68.93
2022-12-23T04:09:27.509Z,67.30
2022-12-23T04:11:54.346Z,67.95
2022-12-23T04:14:22.282Z,64.50
2022-12-23T04:16:56.151Z,73.53
2022-12-23T04:19:22.929Z,81.10
2022-12-23T04:21:49.847Z,91.68
2022-12-23T04:24:16.434Z,98.47
2022-12-23T04:26:42.948Z,98.20
2022-12-23T04:29:09.528Z,120.43
2022-12-23T04:31:36.108Z,114.50
2022-12-23T04:34:02.735Z,97.68
2022-12-23T04:36:29.230Z,77.75
2022-12-23T04:38:55.966Z,61.22
2022-12-23T04:41:24.092Z,62.50
2022-12-23T04:43:53.093Z,58.03
2022-12-23T04:46:20.385Z,63.50
2022-12-23T04:48:47.067Z,55.08
2022-12-23T04:51:13.597Z,50.50
2022-12-23T04:53:40.352Z,53.30
2022-12-23T04:56:06.906Z,55.53
2022-12-23T04:58:33.522Z,63.38
2022-12-23T05:01:05.973Z,81.85
2022-12-23T05:03:33.196Z,503.23
2022-12-23T05:06:00.100Z,283.73
2022-12-23T05:08:27.295Z,339.17
2022-12-23T05:10:54.021Z,345.42
2022-12-23T05:13:21.259Z,751.15
2022-12-23T05:15:52.428Z,324.08
2022-12-23T05:18:19.959Z,489.47
2022-12-23T05:20:46.460Z,442.90
2022-12-23T05:23:13.188Z,268.85
2022-12-23T05:25:39.996Z,425.52
2022-12-23T05:28:10.942Z,443.42
2022-12-23T05:30:37.602Z,511.15
2022-12-23T05:33:04.308Z,616.08
2022-12-23T05:35:31.023Z,326.25
2022-12-23T05:37:57.813Z,290.33
2022-12-23T05:40:26.918Z,429.38
2022-12-23T05:42:57.698Z,188.75
2022-12-23T05:45:24.231Z,344.50
2022-12-23T05:47:53.888Z,311.02
2022-12-23T05:50:20.495Z,269.70
2022-12-23T05:52:48.440Z,172.18
2022-12-23T05:55:14.971Z,118.90
2022-12-23T05:57:41.598Z,188.82
2022-12-23T06:00:09.488Z,223.00
2022-12-23T06:02:51.606Z,229.57
2022-12-23T06:05:20.294Z,317.77
2022-12-23T06:07:46.834Z,256.73
2022-12-23T06:10:13.430Z,407.05
2022-12-23T06:12:40.043Z,498.15
2022-12-23T06:15:07.399Z,418.25
2022-12-23T06:17:33.909Z,395.35
2022-12-23T06:20:00.597Z,589.33
2022-12-23T06:22:27.113Z,380.40
2022-12-23T06:24:54.073Z,470.52
2022-12-23T06:27:20.848Z,632.45
2022-12-23T06:29:48.138Z,384.95
2022-12-23T06:32:14.902Z,315.38
2022-12-23T06:34:41.567Z,449.45
2022-12-23T06:37:08.437Z,324.95
2022-12-23T06:39:34.998Z,293.38
2022-12-23T06:42:01.499Z,199.70
2022-12-23T06:44:28.137Z,262.15
2022-12-23T06:46:54.669Z,276.30
2022-12-23T06:49:21.243Z,265.83
2022-12-23T06:51:47.825Z,406.98
2022-12-23T06:54:14.436Z,597.30
2022-12-23T06:56:40.940Z,452.50
2022-12-23T06:59:07.626Z,472.30
2022-12-23T07:01:34.388Z,390.83
2022-12-23T07:04:01.929Z,356.25
2022-12-23T07:06:28.763Z,782.25
2022-12-23T07:08:55.337Z,315.13
2022-12-23T07:11:21.871Z,346.52
2022-12-23T07:13:48.926Z,377.85
2022-12-23T07:16:15.628Z,266.92
2022-12-23T07:18:42.299Z,334.33
2022-12-23T07:21:19.765Z,239.55
2022-12-23T07:23:48.117Z,191.75
2022-12-23T07:26:14.796Z,193.07
2022-12-23T07:28:43.963Z,192.18
2022-12-23T07:31:10.522Z,150.10
2022-12-23T07:33:37.138Z,160.15
2022-12-23T07:36:03.877Z,191.10
2022-12-23T07:38:30.574Z,239.82
2022-12-23T07:40:57.148Z,204.13
2022-12-23T07:43:23.880Z,179.90
2022-12-23T07:45:57.461Z,210.50
2022-12-23T07:48:26.459Z,199.68
2022-12-23T07:50:53.017Z,200.13
2022-12-23T07:53:19.609Z,185.80
2022-12-23T07:55:48.094Z,180.52
2022-12-23T07:58:18.272Z,197.35
2022-12-23T08:00:44.991Z,203.38
2022-12-23T08:03:12.487Z,137.57
2022-12-23T08:05:39.108Z,135.80
2022-12-23T08:08:05.710Z,267.27
2022-12-23T08:10:32.391Z,202.88
2022-12-23T08:13:02.411Z,259.88
2022-12-23T08:15:29.023Z,290.13
2022-12-23T08:17:56.429Z,361.88
2022-12-23T08:20:22.982Z,478.65
2022-12-23T08:22:49.511Z,515.13
2022-12-23T08:25:16.378Z,441.10
2022-12-23T08:27:42.853Z,270.95
2022-12-23T08:30:10.003Z,183.13
2022-12-23T08:32:36.543Z,190.88
2022-12-23T08:35:03.185Z,204.65
2022-12-23T08:37:29.755Z,171.20
2022-12-23T08:39:56.343Z,182.95
2022-12-23T08:42:22.960Z,209.77
2022-12-23T08:44:49.581Z,363.98
2022-12-23T08:47:16.125Z,255.38
2022-12-23T08:49:42.654Z,549.85
2022-12-23T08:52:09.204Z,535.95
2022-12-23T08:54:35.798Z,346.08
2022-12-23T08:57:02.321Z,329.38
2022-12-23T08:59:31.745Z,297.98
2022-12-23T09:01:59.919Z,312.70
2022-12-23T09:04:26.598Z,367.40
2022-12-23T09:06:53.227Z,306.05
2022-12-23T09:09:19.797Z,320.45
2022-12-23T09:11:46.311Z,248.05
2022-12-23T09:14:14.023Z,195.07
2022-12-23T09:16:40.685Z,191.77
2022-12-23T09:19:07.952Z,248.38
2022-12-23T09:21:35.864Z,271.48
2022-12-23T09:24:02.567Z,284.30
2022-12-23T09:26:31.464Z,297.15
2022-12-23T09:28:58.710Z,267.77
2022-12-23T09:31:30.824Z,250.27
2022-12-23T09:34:02.685Z,217.30
2022-12-23T09:36:29.938Z,209.20
2022-12-23T09:38:58.037Z,170.10
2022-12-23T09:41:40.456Z,171.35
2022-12-23T09:46:53.969Z,161.50
2022-12-23T09:49:23.799Z,185.35
2022-12-23T09:51:54.060Z,197.13
2022-12-23T09:54:31.747Z,184.13
2022-12-23T09:57:03.698Z,213.73
2022-12-23T09:59:58.167Z,223.73
2022-12-23T10:02:30.602Z,234.93
2022-12-23T10:05:20.934Z,227.15
2022-12-23T10:07:52.447Z,186.15
2022-12-23T10:12:47.107Z,161.38
2022-12-23T10:15:22.213Z,144.13
2022-12-23T10:17:53.044Z,133.50
2022-12-23T10:20:29.887Z,222.60
2022-12-23T10:22:58.872Z,236.55
2022-12-23T10:25:46.497Z,176.07
2022-12-23T10:28:13.069Z,169.98
2022-12-23T10:31:10.642Z,183.85
2022-12-23T10:34:03.723Z,176.60
2022-12-23T10:36:44.325Z,171.50
2022-12-23T10:39:19.723Z,146.68
2022-12-23T10:41:58.223Z,164.80
2022-12-23T10:44:44.393Z,216.57
2022-12-23T10:47:16.800Z,215.13
2022-12-23T10:50:37.617Z,196.57
2022-12-23T10:53:10.465Z,197.27
2022-12-23T10:55:38.611Z,158.63
2022-12-23T10:58:16.210Z,134.77
2022-12-23T11:00:48.139Z,102.43
2022-12-23T11:03:23.955Z,108.93
2022-12-23T11:05:52.680Z,92.60
2022-12-23T11:08:22.088Z,84.32
2022-12-23T11:10:49.166Z,64.65
2022-12-23T11:13:34.604Z,58.75
2022-12-23T11:16:26.604Z,43.65
2022-12-23T11:19:06.124Z,41.08
2022-12-23T11:21:33.502Z,31.38
2022-12-23T11:24:09.410Z,31.35
2022-12-23T11:26:36.450Z,28.38
2022-12-23T11:29:09.257Z,25.45
2022-12-23T11:31:36.780Z,22.77
2022-12-23T11:34:18.105Z,21.40
2022-12-23T11:36:54.795Z,25.05
2022-12-23T11:39:27.824Z,20.95
2022-12-23T11:42:03.426Z,21.10
2022-12-23T11:44:32.165Z,17.80
2022-12-23T11:47:18.877Z,18.80
2022-12-23T11:49:55.122Z,25.48
2022-12-23T11:52:28.807Z,17.52
2022-12-23T11:54:57.881Z,16.05
2022-12-23T11:57:31.647Z,15.88
2022-12-23T12:00:02.374Z,18.70
2022-12-23T12:02:37.179Z,17.83
2022-12-23T12:05:22.920Z,25.27
2022-12-23T12:07:53.243Z,21.77
2022-12-23T12:10:28.063Z,55.03
2022-12-23T12:13:02.547Z,66.15
2022-12-23T12:15:48.282Z,69.30
2022-12-23T12:18:19.475Z,87.68
2022-12-23T12:20:54.572Z,64.20
2022-12-23T12:23:28.080Z,60.95
2022-12-23T12:26:00.106Z,108.10
2022-12-23T12:28:38.709Z,78.55
2022-12-23T12:31:17.416Z,65.78
2022-12-23T12:33:50.102Z,62.33
2022-12-23T12:36:41.299Z,66.60
2022-12-23T12:39:18.213Z,55.92
2022-12-23T12:42:00.211Z,64.10
2022-12-23T12:44:47.933Z,75.50
2022-12-23T12:47:45.171Z,96.07
2022-12-23T12:50:16.331Z,96.70
2022-12-23T12:52:43.425Z,68.32
2022-12-23T12:55:27.870Z,70.72
2022-12-23T12:57:54.543Z,68.47
2022-12-23T13:00:23.300Z,58.80
2022-12-23T13:03:14.746Z,56.40
2022-12-23T13:08:05.966Z,139.65
2022-12-23T13:10:37.692Z,77.68
2022-12-23T13:13:41.636Z,157.90
2022-12-23T13:16:14.119Z,211.57
2022-12-23T13:18:55.363Z,223.98
2022-12-23T13:21:52.491Z,202.90
2022-12-23T13:24:41.057Z,95.15
2022-12-23T13:27:20.386Z,57.88
2022-12-23T13:30:13.051Z,61.42
2022-12-23T13:33:06.637Z,46.22
2022-12-23T13:35:38.984Z,47.28
2022-12-23T13:38:14.512Z,56.75
2022-12-23T13:40:59.167Z,108.82
2022-12-23T13:43:36.008Z,52.25
2022-12-23T13:46:12.415Z,55.50
2022-12-23T13:48:47.959Z,49.63
2022-12-23T13:51:15.101Z,61.25
2022-12-23T13:54:05.362Z,63.67
2022-12-23T13:57:09.383Z,65.93
2022-12-23T13:59:41.796Z,80.97
2022-12-23T14:04:59.376Z,72.35
2022-12-23T14:07:28.061Z,46.45
2022-12-23T14:09:58.345Z,49.90
2022-12-23T14:12:30.998Z,24.73
2022-12-23T14:15:12.297Z,28.45
2022-12-23T14:18:14.139Z,34.88
2022-12-23T14:21:08.454Z,27.37
2022-12-23T14:23:59.597Z,51.15
2022-12-23T14:26:55.846Z,39.33
2022-12-23T14:30:05.283Z,54.85
2022-12-23T14:32:47.627Z,46.70
2022-12-23T14:35:35.465Z,50.35
2022-12-23T14:38:15.674Z,63.13
2022-12-23T14:40:42.228Z,178.35
2022-12-23T14:43:27.719Z,76.68
2022-12-23T14:45:59.152Z,219.95
2022-12-23T14:48:47.828Z,72.63
2022-12-23T14:51:14.403Z,60.90
2022-12-23T14:53:59.042Z,78.68
2022-12-23T14:56:43.141Z,59.50
2022-12-23T14:59:12.458Z,53.85
2022-12-23T15:01:52.878Z,49.63
2022-12-23T15:04:27.040Z,53.63
2022-12-23T15:06:58.853Z,56.08
2022-12-23T15:09:38.505Z,55.25
2022-12-23T15:12:16.690Z,75.93
2022-12-23T15:14:50.149Z,70.40
2022-12-23T15:17:28.845Z,58.22
2022-12-23T15:20:11.924Z,38.90
2022-12-23T15:22:40.564Z,53.45
2022-12-23T15:25:22.091Z,25.27
2022-12-23T15:27:49.576Z,35.33
2022-12-23T15:30:17.163Z,33.90
2022-12-23T15:32:46.857Z,26.83
2022-12-23T15:35:19.445Z,38.40
2022-12-23T15:37:49.677Z,30.92
2022-12-23T15:40:27.024Z,29.20
2022-12-23T15:42:54.177Z,41.13
2022-12-23T15:45:23.532Z,41.80
2022-12-23T15:47:50.898Z,111.32
2022-12-23T15:50:18.944Z,90.57
2022-12-23T15:52:48.661Z,84.20
2022-12-23T15:55:20.223Z,32.47
2022-12-23T15:57:50.680Z,39.17
2022-12-23T16:00:25.545Z,45.08
2022-12-23T16:03:03.413Z,115.90
2022-12-23T16:05:35.297Z,71.80
2022-12-23T16:08:28.659Z,83.00
2022-12-23T16:10:56.580Z,80.15
2022-12-23T16:13:23.738Z,87.03
2022-12-23T16:15:50.387Z,95.65
2022-12-23T16:18:28.428Z,85.93
2022-12-23T16:20:59.352Z,85.40
2022-12-23T16:23:30.804Z,60.30
2022-12-23T16:26:00.117Z,54.60
2022-12-23T16:28:31.108Z,40.88
2022-12-23T16:30:58.548Z,41.20
2022-12-23T16:33:37.574Z,26.50
2022-12-23T16:36:27.770Z,34.08
2022-12-23T16:39:06.697Z,54.90
2022-12-23T16:41:34.611Z,49.20
2022-12-23T16:44:01.840Z,39.17
2022-12-23T16:46:34.012Z,46.33
2022-12-23T16:51:33.993Z,30.02
2022-12-23T16:54:01.120Z,28.85
2022-12-23T16:56:31.754Z,26.90
2022-12-23T16:58:58.500Z,31.50
2022-12-23T17:01:29.728Z,30.05
2022-12-23T17:03:56.523Z,38.83
2022-12-23T17:06:23.936Z,70.63
2022-12-23T17:08:51.282Z,59.55
2022-12-23T17:11:22.869Z,81.93
2022-12-23T17:13:49.762Z,65.50
2022-12-23T17:16:21.837Z,80.38
2022-12-23T17:18:49.579Z,57.38
2022-12-23T17:21:19.403Z,57.40
2022-12-23T17:23:46.184Z,58.63
2022-12-23T17:26:12.779Z,51.50
2022-12-23T17:28:39.426Z,46.70
2022-12-23T17:31:13.728Z,38.92
2022-12-23T17:33:41.819Z,43.30
2022-12-23T17:36:13.608Z,42.70
2022-12-23T17:38:40.278Z,51.95
2022-12-23T17:41:06.953Z,75.80
2022-12-23T17:43:33.551Z,70.72
2022-12-23T17:46:00.156Z,71.88
2022-12-23T17:48:31.621Z,60.05
2022-12-23T17:50:58.827Z,74.78
2022-12-23T17:53:25.348Z,233.70
2022-12-23T17:55:51.949Z,87.60
2022-12-23T17:58:19.771Z,72.47
2022-12-23T18:00:46.613Z,80.45
2022-12-23T18:03:22.826Z,94.30
2022-12-23T18:05:54.313Z,91.18
2022-12-23T18:08:25.873Z,72.97
2022-12-23T18:10:55.490Z,61.17
2022-12-23T18:13:22.287Z,66.95
2022-12-23T18:15:50.049Z,71.80
2022-12-23T18:18:27.470Z,74.32
2022-12-23T18:20:58.421Z,453.08
2022-12-23T18:23:31.309Z,127.28
2022-12-23T18:25:58.593Z,97.20
2022-12-23T18:28:25.663Z,99.90
2022-12-23T18:30:54.749Z,102.15
2022-12-23T18:33:22.138Z,104.50
2022-12-23T18:35:50.141Z,113.68
2022-12-23T18:38:17.785Z,110.15
2022-12-23T18:40:45.235Z,110.45
2022-12-23T18:43:23.596Z,180.07
2022-12-23T18:45:54.369Z,136.57
2022-12-23T18:48:21.746Z,95.32
2022-12-23T18:50:48.492Z,84.38
2022-12-23T18:53:24.626Z,89.50
2022-12-23T18:55:52.265Z,85.57
2022-12-23T18:58:19.207Z,85.55
2022-12-23T19:00:46.579Z,87.68
2022-12-23T19:03:26.924Z,80.38
2022-12-23T19:05:54.948Z,78.95
2022-12-23T19:08:26.836Z,70.68
2022-12-23T19:10:57.484Z,88.15
2022-12-23T19:13:24.206Z,85.95
2022-12-23T19:15:50.884Z,70.90
2022-12-23T19:18:20.037Z,71.25
2022-12-23T19:20:48.080Z,81.82
2022-12-23T19:23:15.785Z,75.80
2022-12-23T19:25:49.278Z,77.55
2022-12-23T19:28:21.907Z,81.85
2022-12-23T19:30:51.577Z,122.43
2022-12-23T19:33:18.244Z,108.28
2022-12-23T19:35:45.054Z,129.55
2022-12-23T19:38:12.326Z,125.63
2022-12-23T19:40:39.915Z,134.57
2022-12-23T19:43:06.682Z,148.55
2022-12-23T19:45:33.858Z,282.17
2022-12-23T19:48:00.598Z,592.67
2022-12-23T19:50:27.934Z,567.67
2022-12-23T19:52:56.191Z,383.95
2022-12-23T19:55:23.102Z,349.48
2022-12-23T19:57:49.735Z,391.55
2022-12-23T20:00:16.786Z,255.63
2022-12-23T20:02:46.645Z,331.15
2022-12-23T20:05:13.343Z,274.40
2022-12-23T20:07:40.397Z,271.58
2022-12-23T20:10:08.648Z,361.67
2022-12-23T20:12:35.278Z,291.08
2022-12-23T20:15:01.923Z,229.48
2022-12-23T20:17:28.460Z,197.32
2022-12-23T20:19:55.070Z,239.00
2022-12-23T20:22:21.809Z,381.92
2022-12-23T20:24:48.571Z,553.58
2022-12-23T20:27:16.284Z,584.75
2022-12-23T20:29:43.679Z,613.10
2022-12-23T20:32:10.516Z,412.17
2022-12-23T20:34:39.923Z,267.65
2022-12-23T20:37:07.762Z,494.73
2022-12-23T20:39:34.679Z,383.65
2022-12-23T20:42:01.654Z,327.75
2022-12-23T20:44:37.033Z,446.00
2022-12-23T20:47:07.045Z,640.60
2022-12-23T20:49:33.736Z,290.23
2022-12-23T20:52:01.210Z,378.88
2022-12-23T20:54:33.348Z,496.33
2022-12-23T20:57:02.122Z,710.00
2022-12-23T20:59:28.801Z,206.73
2022-12-23T21:01:55.640Z,220.00
2022-12-23T21:04:22.753Z,149.02
2022-12-23T21:06:50.804Z,240.93
2022-12-23T21:09:17.678Z,606.97
2022-12-23T21:11:46.790Z,560.00
2022-12-23T21:14:14.409Z,219.40
2022-12-23T21:16:41.901Z,450.73
2022-12-23T21:21:35.309Z,395.00
2022-12-23T21:24:04.270Z,214.27
2022-12-23T21:26:33.694Z,205.90
2022-12-23T21:29:01.878Z,488.30
2022-12-23T21:31:30.947Z,155.40
2022-12-23T21:33:58.237Z,152.57
2022-12-23T21:36:31.134Z,137.73
2022-12-23T21:38:59.232Z,155.82
2022-12-23T21:41:31.387Z,436.60
2022-12-23T21:43:59.838Z,200.90
2022-12-23T21:46:28.372Z,166.35
2022-12-23T21:48:56.668Z,229.35
2022-12-23T21:51:25.625Z,173.45
2022-12-23T21:53:58.806Z,170.73
2022-12-23T21:56:27.905Z,252.93
2022-12-23T21:58:56.436Z,395.30
2022-12-23T22:01:23.859Z,506.90
2022-12-23T22:03:51.696Z,301.75
2022-12-23T22:06:26.992Z,492.00
2022-12-23T22:08:54.540Z,216.77
2022-12-23T22:11:33.257Z,155.93
2022-12-23T22:14:01.392Z,141.13
2022-12-23T22:16:30.068Z,136.18
2022-12-23T22:18:58.106Z,127.78
2022-12-23T22:21:25.923Z,150.10
2022-12-23T22:23:54.252Z,159.38
2022-12-23T22:26:25.848Z,192.38
2022-12-23T22:28:58.004Z,171.57
2022-12-23T22:31:27.786Z,141.63
2022-12-23T22:33:54.387Z,124.97
2022-12-23T22:38:56.226Z,164.43
2022-12-23T22:41:24.388Z,184.52
2022-12-23T22:43:51.344Z,199.20
2022-12-23T22:46:18.483Z,190.75
2022-12-23T22:48:45.708Z,229.32
2022-12-23T22:51:18.514Z,250.38
2022-12-23T22:56:00.293Z,261.77
2022-12-23T22:58:28.811Z,293.48
2022-12-23T23:00:55.730Z,257.05
2022-12-23T23:03:22.756Z,232.07
2022-12-23T23:06:04.698Z,214.05
2022-12-23T23:08:34.531Z,228.65
2022-12-23T23:11:03.701Z,232.20
2022-12-23T23:13:33.747Z,268.35
2022-12-23T23:16:01.511Z,256.77
2022-12-23T23:18:28.948Z,227.77
2022-12-23T23:20:55.592Z,246.25
2022-12-23T23:23:22.416Z,248.30
2022-12-23T23:25:51.856Z,146.20
2022-12-23T23:28:18.770Z,114.00
2022-12-23T23:30:45.400Z,99.95
2022-12-23T23:33:12.286Z,99.78
2022-12-23T23:35:38.926Z,110.10
2022-12-23T23:38:05.700Z,101.00
2022-12-23T23:40:32.404Z,96.05
2022-12-23T23:42:59.023Z,102.78
2022-12-23T23:45:27.352Z,114.90
2022-12-23T23:47:55.270Z,114.57
2022-12-23T23:50:22.012Z,85.05
2022-12-23T23:52:51.259Z,113.53
2022-12-23T23:55:17.901Z,103.50
2022-12-23T23:57:44.476Z,114.35
